Time;durP1;ratioP1;P1;durP2;ratioP2;P2;SDS_P1;SDS_P2;PMS_P1;PMS_P2;Temp;Humidity;BMP_temperature;BMP_pressure;BME280_temperature;BME280_humidity;BME280_pressure;Samples;Min_cycle;Max_cycle;Signal;HPM_P1;HPM_P2
2022/09/28 00:00:20;;;;;;;9.02;1.65;;;;;;;6.69;100.00;91473.50;2119755;27;20030;-70
2022/09/28 00:01:23;;;;;;;11.45;2.10;;;;;;;6.80;100.00;91465.91;2123114;27;20022;-71
2022/09/28 00:02:25;;;;;;;14.50;1.90;;;;;;;6.89;100.00;91465.25;2122885;27;20030;-72
2022/09/28 00:03:26;;;;;;;8.43;1.75;;;;;;;6.84;100.00;91467.69;2122588;27;20513;-71
2022/09/28 00:04:27;;;;;;;7.28;2.13;;;;;;;6.89;100.00;91469.78;2122179;27;20597;-73
2022/09/28 00:05:29;;;;;;;6.70;1.42;;;;;;;6.91;100.00;91462.13;2123095;27;20469;-71
2022/09/28 00:06:30;;;;;;;11.35;1.92;;;;;;;6.88;100.00;91460.34;2122888;27;20019;-71
2022/09/28 00:07:31;;;;;;;9.43;1.88;;;;;;;6.83;100.00;91456.31;2122884;27;20035;-73
2022/09/28 00:08:33;;;;;;;14.35;2.92;;;;;;;6.78;100.00;91460.28;2122994;27;20027;-71
2022/09/28 00:09:34;;;;;;;7.97;1.80;;;;;;;6.72;100.00;91455.97;2122299;27;20042;-71
2022/09/28 00:10:36;;;;;;;9.80;1.65;;;;;;;6.82;100.00;91450.28;2121968;27;20020;-71
2022/09/28 00:11:37;;;;;;;14.43;2.50;;;;;;;6.95;100.00;91449.47;2122124;27;20054;-73
2022/09/28 00:12:38;;;;;;;12.88;2.60;;;;;;;6.85;100.00;91440.72;2122780;27;20053;-72
2022/09/28 00:13:41;;;;;;;17.05;2.75;;;;;;;6.92;100.00;91450.34;2122695;27;20067;-71
2022/09/28 00:14:43;;;;;;;14.55;3.00;;;;;;;6.92;100.00;91445.75;2118252;27;20037;-71
2022/09/28 00:15:45;;;;;;;11.93;2.17;;;;;;;7.00;100.00;91449.66;2129208;27;20384;-72
2022/09/28 00:16:47;;;;;;;13.65;2.20;;;;;;;7.00;100.00;91441.69;2131218;27;20111;-71
2022/09/28 00:17:48;;;;;;;12.23;2.20;;;;;;;7.09;100.00;91435.69;2131213;27;20033;-71
2022/09/28 00:18:50;;;;;;;16.08;2.70;;;;;;;6.92;100.00;91445.75;2131420;27;20037;-70
2022/09/28 00:19:51;;;;;;;13.23;2.28;;;;;;;7.14;100.00;91437.03;2130622;27;20037;-70
2022/09/28 00:21:06;;;;;;;11.07;2.13;;;;;;;6.93;100.00;91435.88;2128760;27;20113;-70
2022/09/28 00:22:07;;;;;;;14.32;2.45;;;;;;;6.82;100.00;91429.03;2131452;27;20038;-71
2022/09/28 00:23:08;;;;;;;10.45;2.75;;;;;;;6.78;100.00;91422.38;2130783;27;20402;-72
2022/09/28 00:24:12;;;;;;;13.30;1.95;;;;;;;6.95;100.00;91428.97;2131064;27;20039;-72
2022/09/28 00:25:15;;;;;;;10.15;1.80;;;;;;;6.86;100.00;91426.25;2126820;27;20027;-70
2022/09/28 00:26:16;;;;;;;10.93;2.00;;;;;;;6.99;100.00;91426.19;2131292;27;20453;-72
2022/09/28 00:27:18;;;;;;;13.15;2.20;;;;;;;6.90;100.00;91421.56;2131411;27;20019;-71
2022/09/28 00:28:19;;;;;;;9.55;2.05;;;;;;;6.79;100.00;91416.63;2130874;27;20156;-71
2022/09/28 00:29:35;;;;;;;12.48;2.58;;;;;;;6.79;100.00;91423.84;2131024;27;20485;-73
2022/09/28 00:30:36;;;;;;;12.13;1.95;;;;;;;6.79;100.00;91421.19;2130745;27;20038;-71
2022/09/28 00:31:38;;;;;;;12.63;2.60;;;;;;;6.84;100.00;91414.56;2131300;27;20029;-71
2022/09/28 00:32:39;;;;;;;9.65;2.60;;;;;;;6.78;100.00;91415.13;2131289;27;20023;-70
2022/09/28 00:33:40;;;;;;;12.35;2.45;;;;;;;6.74;100.00;91419.81;2131429;27;20066;-71
2022/09/28 00:34:44;;;;;;;11.10;2.17;;;;;;;6.72;100.00;91408.91;2127222;27;20364;-70
2022/09/28 00:35:45;;;;;;;13.13;2.00;;;;;;;6.73;100.00;91407.00;2129694;27;20026;-71
2022/09/28 00:36:47;;;;;;;14.93;2.50;;;;;;;6.81;100.00;91408.97;2130859;27;20957;-72
2022/09/28 00:37:48;;;;;;;10.75;1.92;;;;;;;6.98;100.00;91408.75;2121987;27;20027;-71
2022/09/28 00:38:51;;;;;;;13.60;2.05;;;;;;;6.97;100.00;91408.00;2122103;27;20023;-70
2022/09/28 00:39:52;;;;;;;7.43;1.70;;;;;;;6.84;100.00;91404.69;2131328;27;20022;-70
2022/09/28 00:40:54;;;;;;;10.55;2.28;;;;;;;6.73;100.00;91393.72;2130324;27;20052;-71
2022/09/28 00:41:55;;;;;;;7.03;1.90;;;;;;;7.10;100.00;91392.00;2130736;27;20115;-71
2022/09/28 00:42:56;;;;;;;8.57;2.08;;;;;;;7.08;100.00;91383.72;2130774;27;20023;-71
2022/09/28 00:44:39;;;;;;;12.25;2.35;;;;;;;7.00;100.00;91382.50;2131322;27;20090;-72
2022/09/28 00:45:40;;;;;;;6.50;1.55;;;;;;;7.18;100.00;91379.19;2115737;27;20349;-71
2022/09/28 00:46:41;;;;;;;10.45;1.90;;;;;;;7.13;100.00;91380.50;2129993;27;20030;-72
2022/09/28 00:47:48;;;;;;;9.20;1.67;;;;;;;7.07;100.00;91383.00;2121613;27;20023;-71
2022/09/28 00:49:19;;;;;;;9.02;1.98;;;;;;;6.89;100.00;91379.50;2122897;27;20655;-71
2022/09/28 00:50:23;;;;;;;9.65;1.85;;;;;;;6.92;100.00;91373.31;2126199;27;20038;-71
2022/09/28 00:51:25;;;;;;;6.75;1.65;;;;;;;7.03;100.00;91376.34;2130406;27;20385;-72
2022/09/28 00:52:43;;;;;;;9.02;2.03;;;;;;;6.93;100.00;91380.84;2130883;27;20026;-71
2022/09/28 00:53:45;;;;;;;9.52;1.90;;;;;;;7.02;100.00;91388.88;2127131;27;20026;-72
2022/09/28 00:54:47;;;;;;;10.75;1.67;;;;;;;7.18;100.00;91384.50;2131050;27;20277;-71
2022/09/28 00:56:02;;;;;;;5.97;1.50;;;;;;;7.14;100.00;91378.59;2129864;27;20075;-71
2022/09/28 00:57:04;;;;;;;7.75;1.98;;;;;;;7.07;100.00;91375.03;2129227;27;20015;-72
2022/09/28 00:58:08;;;;;;;9.63;1.50;;;;;;;6.98;100.00;91360.94;2131103;27;20045;-72
2022/09/28 00:59:09;;;;;;;4.72;1.40;;;;;;;6.86;100.00;91362.53;2130717;27;20022;-71
2022/09/28 01:00:11;;;;;;;12.10;2.05;;;;;;;6.93;100.00;91361.50;2126193;27;20598;-71
2022/09/28 01:01:12;;;;;;;15.93;1.85;;;;;;;6.91;100.00;91367.25;2131107;27;20022;-72
2022/09/28 01:02:13;;;;;;;12.50;2.17;;;;;;;6.95;100.00;91359.91;2112692;28;20038;-71
2022/09/28 01:03:15;;;;;;;9.32;2.00;;;;;;;6.84;100.00;91366.78;2113001;27;20030;-73
2022/09/28 01:04:17;;;;;;;7.05;1.67;;;;;;;6.91;100.00;91366.53;2130861;27;20496;-71
2022/09/28 01:05:19;;;;;;;6.80;1.70;;;;;;;6.97;100.00;91354.16;2130743;27;20531;-70
2022/09/28 01:06:26;;;;;;;8.55;1.70;;;;;;;6.93;100.00;91356.19;2130816;27;20041;-70
2022/09/28 01:07:28;;;;;;;9.88;1.90;;;;;;;6.88;100.00;91357.50;2130238;27;20027;-71
2022/09/28 01:08:31;;;;;;;9.43;1.70;;;;;;;6.83;100.00;91363.38;2130682;27;20368;-72
2022/09/28 01:09:32;;;;;;;8.02;2.33;;;;;;;6.97;100.00;91365.50;2130681;27;20030;-71
2022/09/28 01:10:33;;;;;;;7.70;1.55;;;;;;;6.90;100.00;91355.16;2130830;27;20026;-71
2022/09/28 01:11:38;;;;;;;8.68;1.73;;;;;;;6.87;100.00;91353.38;2130743;27;20034;-71
2022/09/28 01:12:39;;;;;;;11.75;1.67;;;;;;;6.76;100.00;91356.44;2129957;27;20499;-71
2022/09/28 01:13:40;;;;;;;10.27;1.52;;;;;;;6.66;100.00;91346.16;2130785;27;20042;-72
2022/09/28 01:14:43;;;;;;;6.22;1.40;;;;;;;6.64;100.00;91348.53;2126843;27;20101;-72
2022/09/28 01:16:06;;;;;;;5.82;1.45;;;;;;;6.92;100.00;91352.81;2129919;27;20050;-71
2022/09/28 01:17:17;;;;;;;6.38;1.73;;;;;;;6.84;100.00;91340.94;2130568;27;20111;-71
2022/09/28 01:18:34;;;;;;;4.53;1.23;;;;;;;6.88;100.00;91341.56;2128341;27;20038;-72
2022/09/28 01:19:54;;;;;;;10.25;1.73;;;;;;;6.92;100.00;91349.41;2130725;27;20518;-71
2022/09/28 01:21:09;;;;;;;6.32;1.15;;;;;;;7.15;100.00;91340.22;2128464;27;20026;-70
2022/09/28 01:22:29;;;;;;;8.68;1.92;;;;;;;6.97;100.00;91330.25;2126567;27;20487;-72
2022/09/28 01:23:45;;;;;;;4.65;1.33;;;;;;;6.84;100.00;91340.22;2130157;27;20503;-71
2022/09/28 01:25:05;;;;;;;8.40;1.48;;;;;;;6.82;100.00;91335.34;2130744;27;20773;-71
2022/09/28 01:26:44;;;;;;;6.15;1.40;;;;;;;6.76;100.00;91332.53;2130144;27;20026;-71
2022/09/28 01:27:53;;;;;;;10.00;1.40;;;;;;;6.85;100.00;91321.22;2127063;27;20035;-71
2022/09/28 01:29:03;;;;;;;6.53;1.20;;;;;;;6.80;100.00;91324.41;2130157;27;20463;-71
2022/09/28 01:30:06;;;;;;;5.68;1.50;;;;;;;6.64;100.00;91312.09;2121372;27;20381;-71
2022/09/28 01:31:11;;;;;;;5.75;1.40;;;;;;;6.67;100.00;91315.78;2122014;27;20035;-71
2022/09/28 01:32:33;;;;;;;7.28;1.60;;;;;;;6.56;100.00;91316.91;2130259;27;20015;-71
2022/09/28 01:33:54;;;;;;;5.25;1.30;;;;;;;6.63;100.00;91323.91;2129924;27;20027;-71
2022/09/28 01:35:15;;;;;;;6.50;1.17;;;;;;;6.87;100.00;91315.47;2128689;27;20372;-72
2022/09/28 01:36:43;;;;;;;9.85;1.80;;;;;;;6.90;100.00;91320.63;2130543;27;20050;-71
2022/09/28 01:38:01;;;;;;;6.75;1.20;;;;;;;6.63;100.00;91313.28;2127087;27;20022;-71
2022/09/28 01:39:11;;;;;;;5.13;1.58;;;;;;;6.72;100.00;91312.59;2127547;27;20034;-72
2022/09/28 01:40:14;;;;;;;3.75;1.30;;;;;;;6.75;100.00;91309.78;2126539;27;20027;-70
2022/09/28 01:41:16;;;;;;;10.85;1.30;;;;;;;6.67;100.00;91311.25;2130718;27;20059;-70
2022/09/28 01:42:26;;;;;;;4.40;1.45;;;;;;;6.61;100.00;91310.31;2130866;27;20023;-71
2022/09/28 01:43:29;;;;;;;6.35;1.45;;;;;;;6.53;100.00;91317.78;2121378;27;20080;-71
2022/09/28 01:44:38;;;;;;;9.82;1.40;;;;;;;6.53;100.00;91314.38;2120451;27;20039;-70
2022/09/28 01:45:46;;;;;;;6.20;1.40;;;;;;;6.55;100.00;91304.84;2130411;27;20026;-71
2022/09/28 01:46:49;;;;;;;7.25;1.58;;;;;;;6.78;100.00;91297.56;2118100;27;20027;-70
2022/09/28 01:47:55;;;;;;;10.40;1.20;;;;;;;6.62;100.00;91297.78;2121872;27;20023;-70
2022/09/28 01:48:57;;;;;;;6.63;1.10;;;;;;;6.56;100.00;91293.03;2130765;27;20484;-70
2022/09/28 01:50:06;;;;;;;5.68;1.35;;;;;;;6.53;100.00;91290.50;2129920;27;20478;-70
2022/09/28 01:51:13;;;;;;;6.68;1.30;;;;;;;6.51;100.00;91288.28;2130237;27;20034;-70
2022/09/28 01:52:26;;;;;;;6.85;1.17;;;;;;;6.47;100.00;91293.00;2126837;27;20460;-70
2022/09/28 01:53:31;;;;;;;5.35;1.50;;;;;;;6.59;100.00;91282.75;2130793;27;20029;-68
2022/09/28 01:54:49;;;;;;;8.10;0.90;;;;;;;6.53;100.00;91293.16;2129853;27;20038;-70
2022/09/28 01:55:59;;;;;;;4.53;1.02;;;;;;;6.63;100.00;91283.31;2128537;27;20023;-70
2022/09/28 01:57:03;;;;;;;4.63;1.27;;;;;;;6.64;100.00;91277.59;2130298;27;20026;-71
2022/09/28 01:58:12;;;;;;;3.47;1.33;;;;;;;6.57;100.00;91278.59;2130484;27;20054;-70
2022/09/28 01:59:21;;;;;;;3.97;1.05;;;;;;;6.71;100.00;91279.22;2126852;27;20026;-70
2022/09/28 02:00:23;;;;;;;5.03;1.15;;;;;;;6.77;100.00;91269.53;2129744;27;20337;-69
2022/09/28 02:01:36;;;;;;;4.20;1.10;;;;;;;6.68;100.00;91280.13;2130479;27;20023;-71
2022/09/28 02:03:09;;;;;;;4.22;1.00;;;;;;;6.61;100.00;91275.81;2130714;27;20030;-70
2022/09/28 02:04:20;;;;;;;5.38;1.25;;;;;;;6.86;100.00;91268.84;2124949;27;20034;-71
2022/09/28 02:05:34;;;;;;;6.20;1.10;;;;;;;6.63;100.00;91275.34;2127980;27;20099;-70
2022/09/28 02:06:39;;;;;;;5.97;1.48;;;;;;;6.52;100.00;91273.09;2130123;27;20027;-70
2022/09/28 02:07:47;;;;;;;5.00;1.58;;;;;;;6.55;100.00;91272.25;2130669;27;20027;-71
2022/09/28 02:08:56;;;;;;;3.35;1.10;;;;;;;6.53;100.00;91266.63;2127565;27;20364;-69
2022/09/28 02:10:08;;;;;;;4.25;0.93;;;;;;;6.69;100.00;91265.66;2130057;27;20468;-71
2022/09/28 02:11:14;;;;;;;4.40;1.15;;;;;;;6.65;100.00;91267.72;2130133;27;20033;-70
2022/09/28 02:12:40;;;;;;;5.78;1.08;;;;;;;6.66;100.00;91267.28;2127129;27;20380;-70
2022/09/28 02:13:44;;;;;;;5.47;0.98;;;;;;;6.54;100.00;91260.13;2126520;27;20455;-72
2022/09/28 02:14:48;;;;;;;3.28;1.15;;;;;;;6.60;100.00;91265.63;2130548;27;20122;-72
2022/09/28 02:16:24;;;;;;;3.80;1.35;;;;;;;6.64;100.00;91261.66;2129158;27;20110;-72
2022/09/28 02:17:25;;;;;;;1.90;0.65;;;;;;;6.97;100.00;91264.59;2105872;27;20663;-71
2022/09/28 02:18:26;;;;;;;3.35;0.85;;;;;;;6.82;100.00;91268.97;2130240;27;20038;-71
2022/09/28 02:19:30;;;;;;;5.97;1.30;;;;;;;6.69;100.00;91271.72;2130603;27;20046;-71
2022/09/28 02:20:35;;;;;;;3.63;0.90;;;;;;;6.61;100.00;91265.19;2120495;28;20053;-71
2022/09/28 02:21:42;;;;;;;7.22;0.90;;;;;;;6.55;100.00;91261.63;2122081;27;20032;-73
2022/09/28 02:22:50;;;;;;;5.07;0.77;;;;;;;6.56;100.00;91258.53;2126423;27;20030;-72
2022/09/28 02:23:56;;;;;;;3.58;0.77;;;;;;;6.62;100.00;91255.31;2129982;27;20027;-71
2022/09/28 02:25:17;;;;;;;3.17;0.75;;;;;;;6.44;100.00;91258.59;2130147;27;20027;-71
2022/09/28 02:26:23;;;;;;;2.92;0.68;;;;;;;6.39;100.00;91251.94;2126598;27;20497;-71
2022/09/28 02:27:30;;;;;;;6.00;1.05;;;;;;;6.50;100.00;91248.94;2130003;27;20372;-72
2022/09/28 02:28:31;;;;;;;2.03;0.73;;;;;;;6.44;100.00;91251.38;2130543;27;20035;-73
2022/09/28 02:29:32;;;;;;;6.10;0.70;;;;;;;6.44;100.00;91246.06;2130194;27;20022;-71
2022/09/28 02:30:36;;;;;;;1.88;0.65;;;;;;;6.41;100.00;91241.66;2130396;27;20086;-72
2022/09/28 02:31:37;;;;;;;2.00;0.75;;;;;;;6.43;100.00;91247.25;2129690;27;20053;-72
2022/09/28 02:32:41;;;;;;;2.55;0.77;;;;;;;6.39;100.00;91251.94;2130573;27;20077;-71
2022/09/28 02:33:44;;;;;;;3.22;1.30;;;;;;;6.38;100.00;91239.88;2126646;27;20046;-72
2022/09/28 02:34:45;;;;;;;2.63;0.65;;;;;;;6.39;100.00;91243.25;2130624;27;20426;-72
2022/09/28 02:35:46;;;;;;;2.13;0.70;;;;;;;6.49;100.00;91237.53;2130375;27;20055;-71
2022/09/28 02:36:49;;;;;;;3.83;1.02;;;;;;;6.39;100.00;91233.38;2129233;27;20536;-71
2022/09/28 02:37:50;;;;;;;3.50;0.73;;;;;;;6.49;100.00;91236.81;2130410;27;20034;-72
2022/09/28 02:38:52;;;;;;;1.77;0.73;;;;;;;6.36;100.00;91230.84;2130977;27;20483;-72
2022/09/28 02:39:53;;;;;;;2.38;0.52;;;;;;;6.46;100.00;91227.81;2130571;27;20061;-71
2022/09/28 02:41:20;;;;;;;2.72;0.90;;;;;;;6.40;100.00;91221.59;2129765;27;20049;-72
2022/09/28 02:42:32;;;;;;;1.50;0.60;;;;;;;6.38;100.00;91221.28;2126500;27;20093;-72
2022/09/28 02:44:05;;;;;;;5.43;0.95;;;;;;;6.40;100.00;91218.94;2130215;27;20057;-73
2022/09/28 02:45:12;;;;;;;2.60;0.50;;;;;;;6.31;100.00;91216.97;2129461;27;20030;-72
2022/09/28 02:46:28;;;;;;;1.92;0.60;;;;;;;6.44;100.00;91221.47;2127472;27;20022;-72
2022/09/28 02:47:38;;;;;;;1.95;0.60;;;;;;;6.39;100.00;91222.03;2128187;27;20062;-73
2022/09/28 02:49:06;;;;;;;3.60;0.95;;;;;;;6.43;100.00;91217.34;2130250;27;20535;-71
2022/09/28 02:50:24;;;;;;;2.00;0.90;;;;;;;6.37;100.00;91213.78;2129960;27;20464;-72
2022/09/28 02:51:31;;;;;;;2.05;0.40;;;;;;;6.39;100.00;91211.41;2128274;27;20034;-72
2022/09/28 02:53:03;;;;;;;3.30;0.70;;;;;;;6.33;100.00;91218.47;2120324;28;20032;-71
2022/09/28 02:54:42;;;;;;;2.33;0.68;;;;;;;6.40;100.00;91218.19;2126654;27;20061;-71
2022/09/28 02:55:49;;;;;;;2.65;0.90;;;;;;;6.40;100.00;91228.81;2126858;27;20384;-71
2022/09/28 02:56:53;;;;;;;4.68;0.80;;;;;;;6.41;100.00;91230.28;2130081;27;20065;-71
2022/09/28 02:58:06;;;;;;;1.92;0.73;;;;;;;6.36;100.00;91228.19;2129562;27;20038;-71
2022/09/28 02:59:33;;;;;;;5.65;0.85;;;;;;;6.40;100.00;91216.28;2129661;27;20078;-72
2022/09/28 03:00:43;;;;;;;2.63;0.60;;;;;;;6.46;100.00;91219.13;2129555;27;20031;-71
2022/09/28 03:01:46;;;;;;;1.85;0.68;;;;;;;6.43;100.00;91215.41;2126009;27;20046;-73
2022/09/28 03:02:59;;;;;;;3.83;0.88;;;;;;;6.42;100.00;91213.94;2129384;27;20049;-71
2022/09/28 03:04:23;;;;;;;3.03;0.60;;;;;;;6.42;100.00;91213.22;2130439;27;20527;-71
2022/09/28 03:05:59;;;;;;;2.28;0.60;;;;;;;6.44;100.00;91219.53;2095273;28;20758;-72
2022/09/28 03:07:10;;;;;;;2.83;0.60;;;;;;;6.63;100.00;91220.38;2128829;27;20105;-73
2022/09/28 03:08:31;;;;;;;1.40;0.60;;;;;;;6.45;100.00;91220.28;2124988;27;20525;-71
2022/09/28 03:10:09;;;;;;;3.15;0.60;;;;;;;6.42;100.00;91215.84;2130051;27;20031;-71
2022/09/28 03:11:27;;;;;;;3.78;0.60;;;;;;;6.46;100.00;91211.91;2130304;27;20026;-72
2022/09/28 03:12:28;;;;;;;1.25;0.52;;;;;;;6.41;100.00;91203.75;2130201;27;20861;-72
2022/09/28 03:13:30;;;;;;;2.45;0.80;;;;;;;6.42;100.00;91221.91;2129587;27;20421;-71
2022/09/28 03:14:31;;;;;;;5.00;0.60;;;;;;;6.41;100.00;91201.09;2129829;27;20460;-72
2022/09/28 03:15:34;;;;;;;4.57;0.90;;;;;;;6.39;100.00;91198.88;2130098;27;20106;-71
2022/09/28 03:16:35;;;;;;;1.52;0.60;;;;;;;6.38;100.00;91194.75;2129988;27;20023;-72
2022/09/28 03:17:37;;;;;;;4.20;0.75;;;;;;;6.36;100.00;91189.13;2130245;27;20030;-73
2022/09/28 03:18:39;;;;;;;1.60;0.40;;;;;;;6.41;100.00;91201.84;2130364;27;20031;-72
2022/09/28 03:19:40;;;;;;;1.27;0.80;;;;;;;6.38;100.00;91200.06;2130867;27;20435;-72
2022/09/28 03:20:41;;;;;;;0.50;0.38;;;;;;;6.46;100.00;91188.00;2127621;27;20113;-72
2022/09/28 03:21:42;;;;;;;2.05;0.40;;;;;;;6.44;100.00;91185.03;2131990;27;20026;-72
2022/09/28 03:22:43;;;;;;;1.95;0.40;;;;;;;6.47;100.00;91181.53;2131787;27;20022;-71
2022/09/28 03:23:46;;;;;;;3.67;0.45;;;;;;;6.48;100.00;91193.59;2131800;27;20022;-71
2022/09/28 03:24:47;;;;;;;2.72;0.50;;;;;;;6.41;100.00;91183.28;2122063;27;20777;-71
2022/09/28 03:25:47;;;;;;;4.72;0.77;;;;;;;6.38;100.00;91189.44;2122495;27;20027;-72
2022/09/28 03:26:48;;;;;;;1.63;0.50;;;;;;;6.35;100.00;91190.31;2131424;27;20038;-72
2022/09/28 03:27:49;;;;;;;1.95;0.60;;;;;;;6.38;100.00;91189.44;2131483;27;20049;-72
2022/09/28 03:28:50;;;;;;;4.32;0.80;;;;;;;6.36;100.00;91191.03;2131816;27;20031;-71
2022/09/28 03:29:51;;;;;;;1.95;0.50;;;;;;;6.64;100.00;91181.28;2131210;27;20472;-71
2022/09/28 03:30:52;;;;;;;0.40;0.30;;;;;;;6.63;100.00;91179.78;2131862;27;20034;-72
2022/09/28 03:31:53;;;;;;;1.90;0.32;;;;;;;6.60;100.00;91181.41;2131406;27;20456;-72
2022/09/28 03:32:59;;;;;;;0.55;0.35;;;;;;;6.61;100.00;91180.25;2122223;27;20037;-72
2022/09/28 03:34:00;;;;;;;0.32;0.30;;;;;;;6.69;100.00;91181.44;2123489;27;20488;-72
2022/09/28 03:35:01;;;;;;;1.40;0.40;;;;;;;6.73;100.00;91184.72;2131094;27;20058;-71
2022/09/28 03:36:02;;;;;;;1.35;0.90;;;;;;;6.67;100.00;91183.81;2131551;27;20037;-71
2022/09/28 03:37:02;;;;;;;2.20;0.38;;;;;;;6.66;100.00;91186.88;2131260;27;20027;-73
2022/09/28 03:38:03;;;;;;;1.40;0.40;;;;;;;6.87;100.00;91190.66;2131612;27;20047;-72
2022/09/28 03:39:04;;;;;;;0.73;0.30;;;;;;;6.77;100.00;91190.63;2130907;27;20034;-71
2022/09/28 03:40:06;;;;;;;1.33;0.35;;;;;;;6.68;100.00;91192.50;2131105;27;20114;-71
2022/09/28 03:41:07;;;;;;;3.60;0.45;;;;;;;6.62;100.00;91184.38;2131986;27;20030;-71
2022/09/28 03:42:07;;;;;;;0.40;0.30;;;;;;;6.63;100.00;91195.72;2131865;27;20023;-71
2022/09/28 03:43:08;;;;;;;1.35;0.50;;;;;;;6.72;100.00;91183.25;2131907;27;20053;-71
2022/09/28 03:44:09;;;;;;;1.10;0.40;;;;;;;6.68;100.00;91184.56;2131606;27;20437;-71
2022/09/28 03:45:12;;;;;;;0.60;0.38;;;;;;;6.66;100.00;91174.34;2126549;27;20026;-71
2022/09/28 03:46:12;;;;;;;1.27;0.30;;;;;;;6.82;100.00;91184.72;2131180;27;20031;-71
2022/09/28 03:47:16;;;;;;;0.75;0.30;;;;;;;6.71;100.00;91173.78;2131551;27;20030;-70
2022/09/28 03:48:21;;;;;;;0.40;0.20;;;;;;;6.94;100.00;91175.19;2131743;27;20018;-70
2022/09/28 03:49:21;;;;;;;0.28;0.20;;;;;;;7.02;100.00;91172.97;2131711;27;20018;-73
2022/09/28 03:50:22;;;;;;;1.83;0.28;;;;;;;7.16;100.00;91171.66;2130416;27;20200;-71
2022/09/28 03:51:24;;;;;;;0.82;0.38;;;;;;;7.04;100.00;91175.94;2131392;27;20019;-70
2022/09/28 03:52:25;;;;;;;1.58;0.20;;;;;;;6.94;100.00;91182.41;2131596;27;20437;-71
2022/09/28 03:53:27;;;;;;;0.20;0.20;;;;;;;6.90;100.00;91171.91;2131519;27;20034;-71
2022/09/28 03:54:28;;;;;;;0.50;0.20;;;;;;;6.98;100.00;91169.69;2131718;27;20034;-72
2022/09/28 03:55:29;;;;;;;1.23;0.30;;;;;;;6.96;100.00;91170.16;2130879;27;20031;-70
2022/09/28 03:56:30;;;;;;;0.82;0.30;;;;;;;7.04;100.00;91163.38;2130900;27;20491;-71
2022/09/28 03:57:31;;;;;;;0.20;0.20;;;;;;;7.06;100.00;91168.25;2131236;27;20039;-72
2022/09/28 03:58:32;;;;;;;0.52;0.30;;;;;;;7.03;100.00;91166.47;2131525;27;20042;-71
2022/09/28 03:59:36;;;;;;;0.93;0.20;;;;;;;6.99;100.00;91161.31;2131557;27;20031;-71
2022/09/28 04:00:37;;;;;;;2.22;0.35;;;;;;;7.15;100.00;91159.53;2131418;27;20018;-72
2022/09/28 04:01:38;;;;;;;0.90;0.30;;;;;;;7.17;100.00;91152.63;2121718;27;20160;-73
2022/09/28 04:02:39;;;;;;;0.63;0.22;;;;;;;7.19;100.00;91160.88;2122347;27;20023;-71
2022/09/28 04:03:40;;;;;;;1.58;0.38;;;;;;;7.20;100.00;91154.41;2130984;27;20083;-71
2022/09/28 04:04:41;;;;;;;1.27;0.55;;;;;;;7.31;100.00;91154.69;2127166;27;20027;-71
2022/09/28 04:05:50;;;;;;;1.60;0.35;;;;;;;7.43;100.00;91161.06;2131400;27;20034;-71
2022/09/28 04:06:51;;;;;;;0.88;0.20;;;;;;;7.37;100.00;91151.44;2130842;27;20049;-71
2022/09/28 04:07:55;;;;;;;0.63;0.30;;;;;;;7.35;100.00;91149.22;2131547;27;20029;-71
2022/09/28 04:08:56;;;;;;;0.20;0.20;;;;;;;7.28;100.00;91154.84;2130998;27;20067;-72
2022/09/28 04:09:57;;;;;;;2.17;0.30;;;;;;;7.30;100.00;91147.91;2131456;27;20425;-71
2022/09/28 04:10:59;;;;;;;0.65;0.30;;;;;;;7.49;100.00;91143.31;2133428;27;20034;-71
2022/09/28 04:12:00;;;;;;;0.20;0.10;;;;;;;7.34;100.00;91152.34;2130749;27;20026;-71
2022/09/28 04:13:01;;;;;;;0.32;0.17;;;;;;;7.27;100.00;91148.78;2131354;27;20027;-72
2022/09/28 04:14:02;;;;;;;0.25;0.25;;;;;;;7.30;100.00;91147.91;2131092;27;20047;-71
2022/09/28 04:15:03;;;;;;;0.90;0.30;;;;;;;7.38;100.00;91144.97;2130733;27;20031;-72
2022/09/28 04:16:04;;;;;;;0.75;0.47;;;;;;;7.46;100.00;91154.09;2130986;27;20050;-72
2022/09/28 04:17:06;;;;;;;0.35;0.20;;;;;;;7.36;100.00;91150.69;2130792;27;20027;-72
2022/09/28 04:18:12;;;;;;;0.90;0.30;;;;;;;7.27;100.00;91148.03;2122237;27;20039;-71
2022/09/28 04:19:14;;;;;;;0.35;0.30;;;;;;;7.20;100.00;91149.09;2110463;27;20122;-71
2022/09/28 04:20:15;;;;;;;1.88;0.45;;;;;;;7.19;100.00;91158.22;2122566;27;20033;-71
2022/09/28 04:21:20;;;;;;;0.98;0.32;;;;;;;7.15;100.00;91152.31;2131071;27;20082;-73
2022/09/28 04:22:22;;;;;;;0.50;0.40;;;;;;;7.11;100.00;91148.31;2130467;27;20027;-72
2022/09/28 04:23:23;;;;;;;0.52;0.30;;;;;;;7.28;100.00;91141.53;2131340;27;20027;-71
2022/09/28 04:24:25;;;;;;;0.45;0.30;;;;;;;7.37;100.00;91136.22;2122169;27;20822;-71
2022/09/28 04:25:26;;;;;;;0.40;0.32;;;;;;;7.35;100.00;91146.56;2122172;27;20023;-71
2022/09/28 04:26:27;;;;;;;1.27;0.30;;;;;;;7.25;100.00;91143.19;2130786;27;20026;-71
2022/09/28 04:30:09;;;;;;;1.27;0.32;;;;;;;7.22;100.00;91141.41;2121935;27;20133;-71
2022/09/28 04:31:16;;;;;;;0.22;0.20;;;;;;;7.26;100.00;91144.66;2120424;27;20045;-71
2022/09/28 04:32:17;;;;;;;0.95;0.38;;;;;;;7.18;100.00;91145.38;2123476;27;20117;-72
2022/09/28 04:33:17;;;;;;;0.77;0.43;;;;;;;7.10;100.00;91138.88;2125026;27;20027;-72
2022/09/28 04:34:20;;;;;;;1.30;0.40;;;;;;;7.06;100.00;91139.03;2128142;27;20023;-73
2022/09/28 04:35:21;;;;;;;1.80;0.40;;;;;;;7.14;100.00;91140.22;2128644;27;20041;-71
2022/09/28 04:36:23;;;;;;;1.15;0.35;;;;;;;7.15;100.00;91141.69;2126712;27;20118;-71
2022/09/28 04:37:24;;;;;;;0.65;0.30;;;;;;;7.43;100.00;91147.75;2127840;27;20075;-72
2022/09/28 04:38:25;;;;;;;0.32;0.30;;;;;;;7.26;100.00;91142.00;2126371;27;20030;-73
2022/09/28 04:39:26;;;;;;;1.05;0.30;;;;;;;7.22;100.00;91141.41;2125701;27;20394;-70
2022/09/28 04:40:27;;;;;;;0.30;0.25;;;;;;;7.20;100.00;91140.34;2127251;27;20722;-70
2022/09/28 04:41:29;;;;;;;0.30;0.30;;;;;;;7.26;100.00;91142.00;2127382;27;20451;-71
2022/09/28 04:42:30;;;;;;;2.33;0.25;;;;;;;7.25;100.00;91145.09;2128338;27;20030;-73
2022/09/28 04:43:32;;;;;;;0.80;0.20;;;;;;;7.20;100.00;91140.34;2127874;27;20079;-71
2022/09/28 04:44:33;;;;;;;0.85;0.22;;;;;;;7.26;100.00;91141.25;2119121;27;20031;-72
2022/09/28 04:45:34;;;;;;;1.60;0.30;;;;;;;7.39;100.00;91141.84;2118937;27;20138;-71
2022/09/28 04:46:35;;;;;;;1.30;0.30;;;;;;;7.38;100.00;91144.97;2127389;27;20019;-72
2022/09/28 04:47:36;;;;;;;0.25;0.25;;;;;;;7.27;100.00;91138.16;2118998;27;20102;-71
2022/09/28 04:48:37;;;;;;;0.52;0.30;;;;;;;7.21;100.00;91139.94;2119122;27;20716;-71
2022/09/28 04:49:38;;;;;;;0.28;0.20;;;;;;;7.15;100.00;91141.69;2127448;27;20054;-73
2022/09/28 04:50:39;;;;;;;0.52;0.30;;;;;;;7.34;100.00;91139.06;2127856;27;20511;-71
2022/09/28 04:51:41;;;;;;;1.67;0.30;;;;;;;7.34;100.00;91139.78;2128425;27;20031;-72
2022/09/28 04:52:42;;;;;;;1.65;0.30;;;;;;;7.29;100.00;91140.38;2126058;27;20082;-73
2022/09/28 04:53:43;;;;;;;1.00;0.30;;;;;;;7.26;100.00;91146.56;2127756;27;20023;-72
2022/09/28 04:54:46;;;;;;;1.25;0.20;;;;;;;7.24;100.00;91138.28;2117024;27;20034;-72
2022/09/28 04:56:02;;;;;;;0.25;0.17;;;;;;;7.47;100.00;91135.06;2119159;27;20050;-72
2022/09/28 04:57:04;;;;;;;1.05;0.20;;;;;;;7.39;100.00;91133.88;2126909;27;20014;-70
2022/09/28 04:58:05;;;;;;;0.50;0.30;;;;;;;7.31;100.00;91130.78;2119075;27;20042;-70
2022/09/28 04:59:06;;;;;;;0.47;0.30;;;;;;;7.54;100.00;91132.09;2118405;27;20050;-71
2022/09/28 05:00:09;;;;;;;0.30;0.30;;;;;;;7.48;100.00;91127.81;2123952;27;20461;-71
2022/09/28 05:01:14;;;;;;;1.15;0.30;;;;;;;7.31;100.00;91128.13;2126955;27;20068;-71
2022/09/28 05:02:16;;;;;;;0.30;0.30;;;;;;;7.27;100.00;91124.88;2128305;27;20117;-75
2022/09/28 05:03:17;;;;;;;2.10;0.28;;;;;;;7.23;100.00;91137.56;2116361;27;20493;-74
2022/09/28 05:04:18;;;;;;;0.20;0.20;;;;;;;7.23;100.00;91145.53;2117455;27;20026;-74
2022/09/28 05:05:19;;;;;;;0.20;0.20;;;;;;;7.18;100.00;91138.16;2114502;27;20142;-73
2022/09/28 05:06:21;;;;;;;0.55;0.52;;;;;;;7.17;100.00;91138.59;2115280;27;20046;-74
2022/09/28 05:07:22;;;;;;;0.38;0.25;;;;;;;7.15;100.00;91143.59;2116258;27;20121;-74
2022/09/28 05:08:23;;;;;;;1.77;0.32;;;;;;;7.11;100.00;91140.34;2118859;27;20085;-73
2022/09/28 05:09:24;;;;;;;0.60;0.30;;;;;;;7.11;100.00;91143.75;2111742;27;20108;-73
2022/09/28 05:10:25;;;;;;;0.80;0.32;;;;;;;7.10;100.00;91138.88;2126224;27;20110;-71
2022/09/28 05:11:26;;;;;;;0.65;0.20;;;;;;;7.13;100.00;91138.75;2128619;27;20470;-70